createdAt,value
2023-02-13T00:01:30.625Z,19.90
2023-02-13T00:03:59.244Z,18.53
2023-02-13T00:06:28.096Z,19.43
2023-02-13T00:08:56.592Z,20.00
2023-02-13T00:11:25.128Z,21.37
2023-02-13T00:13:53.621Z,22.57
2023-02-13T00:16:22.098Z,21.40
2023-02-13T00:18:52.016Z,22.23
2023-02-13T00:21:20.544Z,20.73
2023-02-13T00:23:49.081Z,21.50
2023-02-13T00:26:18.102Z,21.77
2023-02-13T00:28:46.954Z,21.57
2023-02-13T00:31:16.866Z,23.00
2023-02-13T00:33:45.526Z,23.73
2023-02-13T00:36:16.272Z,27.13
2023-02-13T00:38:45.394Z,24.50
2023-02-13T00:41:14.315Z,27.17
2023-02-13T00:43:42.871Z,26.30
2023-02-13T00:46:11.674Z,26.23
2023-02-13T00:48:40.531Z,26.20
2023-02-13T00:51:09.549Z,25.53
2023-02-13T00:53:40.161Z,22.77
2023-02-13T00:56:08.949Z,22.23
2023-02-13T00:58:37.543Z,21.43
2023-02-13T01:01:06.105Z,23.57
2023-02-13T01:03:34.543Z,24.30
2023-02-13T01:06:03.157Z,24.13
2023-02-13T01:08:31.602Z,23.10
2023-02-13T01:11:01.425Z,23.90
2023-02-13T01:13:29.852Z,23.13
2023-02-13T01:15:58.318Z,24.10
2023-02-13T01:18:26.761Z,21.87
2023-02-13T01:20:59.705Z,20.97
2023-02-13T01:23:31.258Z,19.30
2023-02-13T01:26:01.355Z,20.60
2023-02-13T01:28:30.111Z,21.80
2023-02-13T01:30:59.779Z,21.17
2023-02-13T01:33:29.340Z,21.80
2023-02-13T01:35:58.247Z,19.93
2023-02-13T01:38:26.806Z,20.03
2023-02-13T01:40:56.463Z,19.93
2023-02-13T01:43:26.497Z,19.73
2023-02-13T01:45:57.579Z,18.53
2023-02-13T01:48:27.135Z,16.90
2023-02-13T01:50:58.199Z,17.80
2023-02-13T01:53:29.198Z,18.50
2023-02-13T01:55:59.582Z,18.10
2023-02-13T01:58:31.606Z,17.83
2023-02-13T02:01:00.560Z,17.63
2023-02-13T02:03:31.448Z,17.57
2023-02-13T02:06:01.574Z,18.30
2023-02-13T02:08:30.329Z,18.37
2023-02-13T02:11:00.069Z,17.87
2023-02-13T02:13:29.995Z,18.20
2023-02-13T02:15:58.495Z,17.93
2023-02-13T02:18:26.963Z,15.63
2023-02-13T02:21:10.252Z,15.43
2023-02-13T02:23:53.573Z,16.13
2023-02-13T02:26:42.055Z,15.00
2023-02-13T02:29:26.787Z,15.13
2023-02-13T02:32:05.437Z,14.77
2023-02-13T02:34:38.119Z,14.27
2023-02-13T02:37:09.592Z,14.43
2023-02-13T02:39:44.476Z,13.93
2023-02-13T02:42:20.352Z,14.03
2023-02-13T02:44:54.324Z,14.77
2023-02-13T02:47:44.712Z,15.87
2023-02-13T02:50:28.779Z,13.00
2023-02-13T02:53:05.510Z,13.77
2023-02-13T02:55:37.773Z,13.53
2023-02-13T02:58:27.001Z,13.20
2023-02-13T03:01:14.817Z,12.80
2023-02-13T03:04:02.892Z,14.00
2023-02-13T03:06:35.838Z,13.97
2023-02-13T03:09:23.389Z,14.33
2023-02-13T03:12:10.228Z,14.00
2023-02-13T03:14:39.187Z,12.90
2023-02-13T03:17:25.806Z,13.53
2023-02-13T03:20:17.183Z,12.97
2023-02-13T03:22:50.568Z,13.23
2023-02-13T03:25:30.300Z,12.77
2023-02-13T03:28:18.682Z,13.37
2023-02-13T03:30:54.645Z,12.50
2023-02-13T03:33:28.908Z,12.60
2023-02-13T03:36:20.532Z,12.43
2023-02-13T03:38:52.665Z,13.07
2023-02-13T03:41:22.908Z,13.43
2023-02-13T03:43:57.265Z,12.80
2023-02-13T03:46:27.283Z,13.40
2023-02-13T03:49:14.228Z,14.73
2023-02-13T03:51:45.991Z,14.43
2023-02-13T03:54:18.478Z,14.00
2023-02-13T03:57:05.319Z,14.23
2023-02-13T03:59:36.117Z,14.30
2023-02-13T04:02:08.189Z,14.53
2023-02-13T04:04:40.507Z,14.40
2023-02-13T04:07:12.845Z,14.97
2023-02-13T04:09:44.713Z,15.30
2023-02-13T04:12:16.372Z,15.37
2023-02-13T04:14:48.400Z,17.20
2023-02-13T04:17:19.599Z,18.30
2023-02-13T04:19:48.054Z,16.93
2023-02-13T04:22:17.829Z,17.00
2023-02-13T04:24:46.221Z,18.13
2023-02-13T04:27:15.506Z,17.50
2023-02-13T04:29:44.225Z,18.20
2023-02-13T04:32:14.312Z,19.40
2023-02-13T04:34:42.730Z,18.17
2023-02-13T04:37:11.239Z,20.17
2023-02-13T04:39:41.072Z,21.10
2023-02-13T04:42:09.530Z,20.53
2023-02-13T04:44:37.917Z,21.97
2023-02-13T04:47:06.634Z,21.50
2023-02-13T04:49:35.084Z,20.77
2023-02-13T04:52:03.509Z,21.83
2023-02-13T04:54:31.919Z,23.50
2023-02-13T04:57:01.824Z,23.20
2023-02-13T04:59:30.330Z,23.03
2023-02-13T05:01:59.378Z,23.27
2023-02-13T05:04:28.971Z,23.80
2023-02-13T05:06:57.548Z,25.43
2023-02-13T05:09:26.085Z,22.97
2023-02-13T05:11:54.841Z,22.17
2023-02-13T05:14:24.768Z,20.90
2023-02-13T05:16:53.235Z,20.73
2023-02-13T05:19:21.796Z,18.23
2023-02-13T05:22:07.713Z,18.20
2023-02-13T05:24:36.181Z,19.23
2023-02-13T05:27:04.656Z,18.90
2023-02-13T05:29:34.633Z,18.43
2023-02-13T05:32:03.227Z,19.33
2023-02-13T05:34:31.896Z,19.53
2023-02-13T05:37:00.751Z,16.67
2023-02-13T05:39:29.283Z,16.33
2023-02-13T05:41:57.758Z,15.93
2023-02-13T05:44:26.260Z,16.10
2023-02-13T05:46:56.005Z,16.90
2023-02-13T05:49:24.447Z,16.60
2023-02-13T05:51:53.273Z,17.33
2023-02-13T05:54:21.763Z,17.00
2023-02-13T05:56:50.208Z,16.70
2023-02-13T05:59:18.755Z,16.93
2023-02-13T06:01:47.262Z,16.53
2023-02-13T06:04:17.219Z,17.33
2023-02-13T06:06:46.233Z,15.80
2023-02-13T06:09:14.690Z,17.17
2023-02-13T06:11:43.050Z,18.67
2023-02-13T06:14:11.575Z,18.53
2023-02-13T06:16:40.046Z,18.57
2023-02-13T06:19:08.666Z,19.40
2023-02-13T06:21:39.079Z,18.90
2023-02-13T06:24:07.720Z,17.00
2023-02-13T06:26:36.142Z,17.87
2023-02-13T06:29:05.829Z,16.50
2023-02-13T06:31:35.317Z,17.43
2023-02-13T06:34:03.860Z,19.57
2023-02-13T06:36:32.724Z,17.43
2023-02-13T06:39:02.548Z,17.57
2023-02-13T06:41:30.964Z,18.13
2023-02-13T06:43:59.391Z,18.00
2023-02-13T06:46:27.983Z,18.27
2023-02-13T06:48:56.573Z,17.30
2023-02-13T06:51:25.078Z,19.30
2023-02-13T06:53:53.493Z,22.30
2023-02-13T06:56:23.507Z,25.20
2023-02-13T06:58:51.941Z,22.30
2023-02-13T07:01:20.496Z,21.47
2023-02-13T07:03:49.143Z,21.57
2023-02-13T07:06:20.415Z,21.70
2023-02-13T07:08:51.487Z,21.47
2023-02-13T07:11:20.637Z,20.37
2023-02-13T07:13:50.608Z,19.63
2023-02-13T07:16:19.031Z,19.00
2023-02-13T07:18:47.553Z,20.00
2023-02-13T07:21:16.175Z,19.73
2023-02-13T07:23:44.700Z,20.57
2023-02-13T07:26:13.219Z,18.43
2023-02-13T07:28:41.738Z,19.83
2023-02-13T07:31:12.108Z,19.50
2023-02-13T07:33:40.696Z,19.20
2023-02-13T07:36:09.676Z,19.73
2023-02-13T07:38:38.120Z,20.17
2023-02-13T07:41:06.748Z,18.73
2023-02-13T07:43:35.184Z,20.07
2023-02-13T07:46:04.254Z,20.80
2023-02-13T07:48:34.110Z,21.73
2023-02-13T07:51:03.332Z,22.03
2023-02-13T07:53:31.893Z,20.23
2023-02-13T07:56:00.325Z,20.30
2023-02-13T07:58:28.793Z,19.07
2023-02-13T08:00:57.234Z,18.17
2023-02-13T08:03:25.707Z,17.50
2023-02-13T08:05:55.809Z,20.73
2023-02-13T08:08:24.431Z,18.27
2023-02-13T08:11:10.932Z,18.80
2023-02-13T08:13:39.429Z,16.73
2023-02-13T08:16:08.057Z,17.77
2023-02-13T08:18:36.674Z,19.50
2023-02-13T08:21:06.743Z,20.50
2023-02-13T08:23:35.222Z,20.33
2023-02-13T08:26:03.996Z,21.00
2023-02-13T08:28:32.605Z,19.57
2023-02-13T08:31:01.203Z,21.73
2023-02-13T08:33:29.616Z,23.00
2023-02-13T08:35:58.314Z,22.27
2023-02-13T08:38:28.344Z,21.77
2023-02-13T08:40:58.894Z,25.37
2023-02-13T08:43:27.546Z,27.30
2023-02-13T08:45:56.492Z,27.97
2023-02-13T08:48:25.176Z,28.93
2023-02-13T08:50:53.664Z,27.47
2023-02-13T08:53:22.117Z,27.87
2023-02-13T08:55:55.706Z,26.63
2023-02-13T08:58:24.360Z,28.73
2023-02-13T09:00:52.825Z,28.03
2023-02-13T09:03:21.441Z,27.17
2023-02-13T09:05:50.710Z,26.90
2023-02-13T09:08:19.229Z,26.60
2023-02-13T09:10:47.682Z,27.50
2023-02-13T09:13:17.540Z,27.27
2023-02-13T09:15:45.942Z,27.67
2023-02-13T09:18:14.377Z,27.17
2023-02-13T09:20:42.829Z,25.40
2023-02-13T09:23:11.315Z,25.80
2023-02-13T09:25:39.800Z,26.90
2023-02-13T09:28:08.323Z,27.73
2023-02-13T09:30:38.253Z,28.07
2023-02-13T09:33:11.807Z,26.63
2023-02-13T09:35:41.548Z,27.80
2023-02-13T09:38:09.980Z,26.53
2023-02-13T09:40:41.359Z,27.43
2023-02-13T09:43:13.851Z,27.00
2023-02-13T09:45:44.344Z,26.93
2023-02-13T09:48:17.995Z,26.90
2023-02-13T09:50:46.495Z,26.83
2023-02-13T09:53:19.556Z,27.50
2023-02-13T09:55:52.920Z,28.67
2023-02-13T09:58:28.111Z,28.07
2023-02-13T10:00:59.757Z,27.53
2023-02-13T10:03:31.048Z,28.27
2023-02-13T10:06:06.512Z,27.93
2023-02-13T10:08:51.169Z,26.53
2023-02-13T10:11:27.257Z,28.27
2023-02-13T10:14:01.550Z,27.93
2023-02-13T10:16:34.970Z,28.07
2023-02-13T10:19:06.790Z,26.90
2023-02-13T10:21:36.743Z,29.33
2023-02-13T10:24:08.040Z,29.67
2023-02-13T10:26:45.967Z,28.23
2023-02-13T10:29:35.585Z,27.57
2023-02-13T10:32:07.325Z,28.47
2023-02-13T10:34:39.681Z,28.17
2023-02-13T10:37:13.883Z,27.03
2023-02-13T10:39:43.081Z,26.43
2023-02-13T10:42:17.532Z,28.00
2023-02-13T10:44:52.862Z,26.90
2023-02-13T10:47:31.283Z,26.53
2023-02-13T10:50:07.029Z,27.23
2023-02-13T10:52:41.398Z,29.07
2023-02-13T10:55:39.724Z,27.20
2023-02-13T10:58:11.428Z,27.13
2023-02-13T11:00:42.886Z,28.47
2023-02-13T11:03:17.623Z,29.47
2023-02-13T11:05:46.183Z,28.70
2023-02-13T11:08:19.209Z,29.17
2023-02-13T11:10:47.718Z,28.90
2023-02-13T11:13:20.552Z,28.67
2023-02-13T11:16:00.150Z,29.87
2023-02-13T11:18:31.235Z,28.93
2023-02-13T11:21:04.105Z,29.90
2023-02-13T11:23:37.353Z,28.40
2023-02-13T11:26:07.788Z,29.23
2023-02-13T11:28:38.839Z,30.57
2023-02-13T11:31:14.878Z,30.17
2023-02-13T11:33:44.844Z,29.27
2023-02-13T11:36:16.173Z,30.23
2023-02-13T11:38:44.681Z,31.43
2023-02-13T11:41:14.508Z,30.90
2023-02-13T11:43:47.019Z,28.80
2023-02-13T11:46:19.557Z,29.23
2023-02-13T11:48:59.943Z,29.33
2023-02-13T11:51:37.304Z,30.17
2023-02-13T11:54:05.971Z,29.33
2023-02-13T11:57:03.122Z,29.00
2023-02-13T11:59:34.067Z,29.70
2023-02-13T12:02:13.844Z,30.53
2023-02-13T12:04:43.660Z,31.33
2023-02-13T12:07:15.237Z,29.97
2023-02-13T12:09:44.181Z,31.53
2023-02-13T12:12:17.749Z,30.47
2023-02-13T12:14:47.240Z,28.53
2023-02-13T12:17:30.877Z,28.57
2023-02-13T12:20:02.395Z,30.03
2023-02-13T12:22:38.826Z,27.83
2023-02-13T12:25:28.355Z,29.03
2023-02-13T12:28:15.003Z,31.23
2023-02-13T12:30:49.752Z,30.07
2023-02-13T12:33:26.065Z,31.73
2023-02-13T12:35:59.026Z,31.13
2023-02-13T12:38:33.145Z,28.60
2023-02-13T12:41:06.211Z,30.03
2023-02-13T12:44:04.767Z,29.33
2023-02-13T12:46:39.737Z,29.03
2023-02-13T12:49:15.088Z,28.07
2023-02-13T12:51:50.724Z,26.03
2023-02-13T12:54:29.535Z,27.47
2023-02-13T12:57:14.094Z,27.97
2023-02-13T12:59:50.790Z,28.17
2023-02-13T13:02:43.112Z,28.83
2023-02-13T13:05:18.213Z,28.07
2023-02-13T13:07:57.418Z,29.57
2023-02-13T13:10:43.539Z,30.00
2023-02-13T13:13:18.539Z,26.90
2023-02-13T13:15:53.612Z,28.60
2023-02-13T13:18:27.789Z,31.97
2023-02-13T13:21:16.862Z,28.47
2023-02-13T13:23:49.134Z,33.20
2023-02-13T13:26:23.756Z,28.73
2023-02-13T13:28:54.246Z,28.10
2023-02-13T13:31:24.351Z,29.47
2023-02-13T13:33:52.971Z,27.93
2023-02-13T13:36:25.875Z,28.93
2023-02-13T13:39:01.847Z,32.23
2023-02-13T13:41:34.561Z,43.67
2023-02-13T13:44:09.540Z,31.00
2023-02-13T13:46:42.261Z,28.00
2023-02-13T13:49:19.801Z,27.10
2023-02-13T13:51:48.203Z,27.43
2023-02-13T13:54:22.460Z,30.63
2023-02-13T13:57:06.115Z,26.30
2023-02-13T13:59:53.929Z,26.80
2023-02-13T14:02:29.870Z,33.77
2023-02-13T14:05:04.036Z,28.77
2023-02-13T14:07:35.736Z,29.17
2023-02-13T14:10:05.777Z,30.00
2023-02-13T14:12:38.644Z,31.83
2023-02-13T14:15:09.035Z,27.77
2023-02-13T14:17:53.132Z,31.60
2023-02-13T14:20:23.762Z,30.27
2023-02-13T14:22:52.347Z,28.77
2023-02-13T14:25:26.721Z,27.67
2023-02-13T14:27:58.814Z,28.63
2023-02-13T14:30:31.232Z,29.03
2023-02-13T14:33:02.553Z,31.50
2023-02-13T14:35:32.196Z,30.13
2023-02-13T14:38:01.180Z,29.90
2023-02-13T14:40:33.469Z,27.07
2023-02-13T14:43:03.485Z,27.17
2023-02-13T14:45:34.052Z,28.83
2023-02-13T14:48:07.189Z,26.73
2023-02-13T14:50:39.884Z,26.30
2023-02-13T14:53:11.501Z,80.93
2023-02-13T14:55:43.101Z,41.43
2023-02-13T14:58:15.151Z,29.53
2023-02-13T15:00:46.068Z,32.40
2023-02-13T15:03:22.402Z,28.50
2023-02-13T15:05:52.584Z,28.33
2023-02-13T15:08:22.238Z,27.57
2023-02-13T15:10:52.753Z,28.10
2023-02-13T15:13:23.150Z,26.77
2023-02-13T15:15:53.881Z,28.63
2023-02-13T15:18:24.106Z,28.10
2023-02-13T15:20:55.568Z,31.00
2023-02-13T15:23:26.264Z,35.77
2023-02-13T15:26:03.048Z,30.47
2023-02-13T15:28:31.996Z,30.40
2023-02-13T15:31:02.038Z,30.23
2023-02-13T15:33:31.914Z,28.37
2023-02-13T15:36:01.877Z,31.33
2023-02-13T15:38:31.036Z,29.13
2023-02-13T15:41:01.135Z,29.70
2023-02-13T15:43:33.911Z,28.03
2023-02-13T15:46:03.226Z,28.90
2023-02-13T15:48:33.294Z,32.93
2023-02-13T15:51:02.039Z,52.17
2023-02-13T15:53:31.103Z,33.97
2023-02-13T15:56:03.331Z,42.40
2023-02-13T15:58:34.755Z,29.43
2023-02-13T16:01:04.759Z,36.03
2023-02-13T16:03:33.977Z,35.07
2023-02-13T16:06:02.683Z,40.73
2023-02-13T16:08:38.389Z,37.47
2023-02-13T16:11:25.040Z,27.97
2023-02-13T16:13:59.240Z,40.90
2023-02-13T16:16:28.068Z,32.90
2023-02-13T16:18:56.867Z,29.73
2023-02-13T16:21:26.034Z,29.03
2023-02-13T16:23:56.828Z,29.13
2023-02-13T16:26:25.474Z,30.63
2023-02-13T16:28:55.883Z,32.43
2023-02-13T16:31:25.913Z,28.60
2023-02-13T16:33:54.526Z,31.63
2023-02-13T16:36:29.470Z,29.37
2023-02-13T16:38:58.000Z,28.77
2023-02-13T16:41:31.715Z,25.60
2023-02-13T16:44:00.728Z,25.73
2023-02-13T16:46:34.875Z,24.33
2023-02-13T16:49:17.404Z,24.73
2023-02-13T16:51:47.185Z,25.47
2023-02-13T16:54:20.964Z,24.70
2023-02-13T16:56:50.399Z,25.23
2023-02-13T16:59:29.970Z,25.20
2023-02-13T17:02:23.027Z,25.07
2023-02-13T17:04:53.062Z,25.80
2023-02-13T17:07:22.901Z,27.37
2023-02-13T17:09:55.511Z,29.50
2023-02-13T17:12:24.084Z,30.70
2023-02-13T17:14:52.627Z,29.40
2023-02-13T17:17:23.419Z,32.20
2023-02-13T17:19:52.016Z,29.43
2023-02-13T17:22:29.476Z,28.93
2023-02-13T17:24:57.950Z,28.67
2023-02-13T17:27:26.316Z,30.70
2023-02-13T17:29:54.882Z,29.60
2023-02-13T17:32:26.242Z,29.87
2023-02-13T17:34:54.670Z,32.73
2023-02-13T17:37:24.173Z,32.47
2023-02-13T17:39:52.619Z,31.93
2023-02-13T17:42:23.162Z,30.23
2023-02-13T17:44:51.823Z,31.23
2023-02-13T17:47:20.489Z,30.43
2023-02-13T17:49:50.405Z,32.87
2023-02-13T17:52:20.035Z,31.10
2023-02-13T17:54:48.649Z,33.03
2023-02-13T17:57:18.282Z,32.73
2023-02-13T17:59:46.830Z,32.93
2023-02-13T18:02:16.496Z,35.33
2023-02-13T18:04:45.135Z,34.53
2023-02-13T18:07:15.769Z,33.40
2023-02-13T18:09:44.211Z,34.30
2023-02-13T18:12:14.886Z,35.47
2023-02-13T18:14:43.775Z,35.73
2023-02-13T18:17:12.280Z,35.13
2023-02-13T18:19:41.326Z,38.17
2023-02-13T18:22:10.306Z,37.63
2023-02-13T18:24:41.999Z,35.23
2023-02-13T18:27:12.457Z,37.00
2023-02-13T18:29:41.107Z,33.80
2023-02-13T18:32:10.737Z,34.03
2023-02-13T18:34:39.771Z,31.97
2023-02-13T18:37:09.101Z,32.63
2023-02-13T18:39:37.651Z,31.83
2023-02-13T18:42:07.603Z,30.10
2023-02-13T18:44:36.132Z,31.00
2023-02-13T18:47:04.931Z,30.63
2023-02-13T18:49:33.395Z,31.10
2023-02-13T18:52:02.369Z,31.97
2023-02-13T18:54:31.102Z,30.93
2023-02-13T18:56:59.651Z,33.27
2023-02-13T18:59:29.738Z,31.20
2023-02-13T19:01:58.415Z,31.67
2023-02-13T19:04:26.884Z,32.43
2023-02-13T19:06:55.323Z,42.30
2023-02-13T19:09:23.780Z,49.07
2023-02-13T19:11:52.245Z,52.33
2023-02-13T19:14:21.005Z,43.73
2023-02-13T19:16:50.812Z,35.27
2023-02-13T19:19:19.194Z,32.27
2023-02-13T19:21:47.661Z,35.57
2023-02-13T19:24:16.282Z,32.90
2023-02-13T19:26:44.829Z,34.47
2023-02-13T19:29:13.309Z,32.27
2023-02-13T19:31:41.919Z,33.53
2023-02-13T19:34:11.884Z,35.63
2023-02-13T19:36:40.437Z,34.87
2023-02-13T19:39:09.501Z,34.87
2023-02-13T19:41:40.603Z,38.67
2023-02-13T19:44:09.429Z,37.37
2023-02-13T19:46:38.684Z,35.20
2023-02-13T19:49:07.409Z,34.27
2023-02-13T19:51:37.741Z,33.80
2023-02-13T19:54:07.304Z,33.47
2023-02-13T19:56:37.082Z,32.27
2023-02-13T19:59:05.802Z,32.70
2023-02-13T20:01:34.616Z,31.27
2023-02-13T20:04:03.107Z,31.57
2023-02-13T20:06:33.404Z,31.27
2023-02-13T20:09:04.999Z,31.40
2023-02-13T20:11:33.496Z,30.77
2023-02-13T20:14:04.000Z,31.20
2023-02-13T20:16:35.501Z,31.27
2023-02-13T20:19:06.422Z,29.13
2023-02-13T20:21:35.474Z,30.10
2023-02-13T20:24:05.866Z,31.07
2023-02-13T20:26:34.641Z,29.70
2023-02-13T20:29:03.448Z,31.03
2023-02-13T20:31:33.696Z,30.27
2023-02-13T20:34:02.256Z,28.70
2023-02-13T20:36:31.537Z,28.43
2023-02-13T20:39:01.198Z,31.37
2023-02-13T20:41:31.817Z,30.10
2023-02-13T20:44:00.759Z,28.47
2023-02-13T20:46:30.833Z,29.83
2023-02-13T20:48:59.318Z,29.80
2023-02-13T20:51:27.862Z,28.47
2023-02-13T20:53:56.511Z,27.57
2023-02-13T20:56:25.983Z,27.13
2023-02-13T20:58:57.264Z,27.80
2023-02-13T21:01:26.895Z,26.77
2023-02-13T21:03:56.267Z,26.17
2023-02-13T21:06:26.054Z,27.67
2023-02-13T21:08:54.462Z,27.97
2023-02-13T21:11:23.643Z,27.17
2023-02-13T21:13:52.234Z,27.90
2023-02-13T21:16:23.352Z,27.37
2023-02-13T21:18:52.844Z,28.27
2023-02-13T21:21:21.720Z,27.57
2023-02-13T21:23:50.472Z,26.70
2023-02-13T21:26:19.401Z,28.00
2023-02-13T21:28:48.824Z,26.40
2023-02-13T21:31:18.529Z,27.83
2023-02-13T21:33:48.469Z,27.53
2023-02-13T21:36:17.345Z,26.13
2023-02-13T21:38:45.828Z,26.67
2023-02-13T21:41:15.977Z,26.30
2023-02-13T21:43:46.800Z,26.30
2023-02-13T21:46:16.389Z,26.60
2023-02-13T21:48:45.022Z,26.60
2023-02-13T21:51:15.690Z,26.70
2023-02-13T21:53:44.737Z,26.73
2023-02-13T21:56:13.973Z,26.47
2023-02-13T21:58:43.358Z,30.07
2023-02-13T22:01:20.549Z,37.60
2023-02-13T22:03:52.832Z,34.30
2023-02-13T22:06:22.741Z,28.90
2023-02-13T22:08:51.319Z,30.23
2023-02-13T22:11:19.826Z,27.93
2023-02-13T22:13:48.390Z,27.33
2023-02-13T22:16:17.401Z,26.67
2023-02-13T22:18:48.234Z,26.20
2023-02-13T22:21:18.266Z,25.87
2023-02-13T22:23:48.354Z,25.40
2023-02-13T22:26:18.340Z,25.83
2023-02-13T22:28:47.237Z,24.47
2023-02-13T22:31:16.126Z,25.87
2023-02-13T22:33:47.592Z,24.67
2023-02-13T22:36:22.223Z,25.30
2023-02-13T22:38:52.746Z,25.70
2023-02-13T22:41:25.159Z,24.17
2023-02-13T22:43:53.926Z,22.27
2023-02-13T22:46:23.441Z,23.33
2023-02-13T22:48:53.325Z,23.20
2023-02-13T22:51:22.687Z,24.03
2023-02-13T22:53:54.073Z,24.17
2023-02-13T22:56:22.829Z,24.23
2023-02-13T22:58:51.327Z,24.50
2023-02-13T23:01:21.018Z,24.57
2023-02-13T23:03:49.485Z,24.13
2023-02-13T23:06:18.641Z,24.03
2023-02-13T23:08:49.106Z,22.37
2023-02-13T23:11:36.851Z,23.50
2023-02-13T23:14:05.658Z,22.90
2023-02-13T23:16:54.752Z,24.37
2023-02-13T23:19:22.331Z,22.33
2023-02-13T23:21:50.959Z,22.50
2023-02-13T23:24:19.507Z,22.80
2023-02-13T23:26:49.316Z,23.50
2023-02-13T23:29:17.741Z,22.90
2023-02-13T23:31:46.315Z,23.20
2023-02-13T23:34:14.776Z,23.50
2023-02-13T23:36:43.248Z,22.10
2023-02-13T23:39:11.695Z,22.50
2023-02-13T23:41:40.190Z,21.37
2023-02-13T23:44:10.051Z,22.97
2023-02-13T23:46:38.546Z,22.07
2023-02-13T23:49:07.609Z,22.23
2023-02-13T23:51:36.371Z,22.67
2023-02-13T23:54:05.029Z,23.30
2023-02-13T23:56:33.686Z,23.27
2023-02-13T23:59:02.282Z,24.00
